Slainte III — WDJ4039 — position and weather

sailwx.info

Track history (hours):
 
Tides and Currents Weather Stations Pressure Air Temp Water Temp Dewpoint Dewpoint Depression Visibility Wind Speed Wind Dir Waves Ship Positions

Slainte III

Owner: J.R.J Yachts LLC, Manchester, CT. More information available from US FCC via Universal Licensing System and Coast Guard Vessel Documentation Center.

Last reported at 2018-Aug-19 15:00 UTC. Time now 2018-Aug-19 15:19 UTC.
Position N 44°07' W 069°02'.

; draft 2.8 m.

Type: Pleasure craft. MMSI: 338148844.

Date/timePositionNaut miles runAvg speedWind from/ knotsBaromVisibWave heightAir tempDewpointWater temp
2018-Aug-19 15:00N 44°07' W 069°02'511.0
2018-Aug-19 14:31N 44°12' W 069°00'12 0.3
2018-Aug-17 17:15N 44°08' W 068°44'3 9.5
2018-Aug-17 16:58N 44°08' W 068°48'3 6.1
2018-Aug-17 16:30N 44°07' W 068°52'3 6.4
2018-Aug-17 16:00N 44°06' W 068°56'510.2
2018-Aug-17 15:30N 44°06' W 069°03'2 0.1
2018-Aug-16 17:26N 44°06' W 069°06'1 3.1
2018-Aug-16 17:00N 44°06' W 069°04'10 1.3
2018-Aug-16 09:32N 43°58' W 069°12'0 0.1
2018-Aug-16 09:29N 43°58' W 069°12'0 0.0
2018-Aug-15 23:53N 43°58' W 069°12'0 0.0
2018-Aug-15 23:26N 43°58' W 069°12'0 0.0
2018-Aug-15 22:58N 43°58' W 069°12'0 0.0
2018-Aug-15 22:23N 43°58' W 069°12'0 0.0
2018-Aug-15 21:59N 43°58' W 069°12'0 0.0
2018-Aug-15 21:29N 43°58' W 069°12'0 0.0
2018-Aug-15 20:59N 43°58' W 069°12'0 0.0
2018-Aug-15 20:26N 43°58' W 069°12'0 0.0
2018-Aug-15 19:59N 43°58' W 069°12'0 0.0
2018-Aug-15 19:25N 43°58' W 069°12'0 0.1
2018-Aug-15 19:00N 43°58' W 069°12'  
Track history (hours):
 
Tides and Currents Weather Stations Pressure Air Temp Water Temp Dewpoint Dewpoint Depression Visibility Wind Speed Wind Dir Waves Ship Positions

Slainte III

Owner: J.R.J Yachts LLC, Manchester, CT. More information available from US FCC via Universal Licensing System and Coast Guard Vessel Documentation Center.

Last reported at 2018-Aug-19 15:00 UTC. Time now 2018-Aug-19 15:19 UTC.
Position N 44°07' W 069°02'.

; draft 2.8 m.

Type: Pleasure craft. MMSI: 338148844.

Date/timePositionNaut miles runAvg speedWind from/ knotsBaromVisibWave heightAir tempDewpointWater temp
2018-Aug-19 15:00N 44°07' W 069°02'511.0
2018-Aug-19 14:31N 44°12' W 069°00'12 0.3
2018-Aug-17 17:15N 44°08' W 068°44'3 9.5
2018-Aug-17 16:58N 44°08' W 068°48'3 6.1
2018-Aug-17 16:30N 44°07' W 068°52'3 6.4
2018-Aug-17 16:00N 44°06' W 068°56'510.2
2018-Aug-17 15:30N 44°06' W 069°03'2 0.1
2018-Aug-16 17:26N 44°06' W 069°06'1 3.1
2018-Aug-16 17:00N 44°06' W 069°04'10 1.3
2018-Aug-16 09:32N 43°58' W 069°12'0 0.1
2018-Aug-16 09:29N 43°58' W 069°12'0 0.0
2018-Aug-15 23:53N 43°58' W 069°12'0 0.0
2018-Aug-15 23:26N 43°58' W 069°12'0 0.0
2018-Aug-15 22:58N 43°58' W 069°12'0 0.0
2018-Aug-15 22:23N 43°58' W 069°12'0 0.0
2018-Aug-15 21:59N 43°58' W 069°12'0 0.0
2018-Aug-15 21:29N 43°58' W 069°12'0 0.0
2018-Aug-15 20:59N 43°58' W 069°12'0 0.0
2018-Aug-15 20:26N 43°58' W 069°12'0 0.0
2018-Aug-15 19:59N 43°58' W 069°12'0 0.0
2018-Aug-15 19:25N 43°58' W 069°12'0 0.1
2018-Aug-15 19:00N 43°58' W 069°12'  

Dump ship's entire track history